sensor_id;sensor_type;location;lat;lon;timestamp;P1;durP1;ratioP1;P2;durP2;ratioP2
15110;SDS011;7656;51.954;7.998;2023-05-10T00:01:36;5.73;;;5.20;;
15110;SDS011;7656;51.954;7.998;2023-05-10T00:05:58;6.43;;;5.20;;
15110;SDS011;7656;51.954;7.998;2023-05-10T00:10:19;5.93;;;4.80;;
15110;SDS011;7656;51.954;7.998;2023-05-10T00:14:40;6.53;;;5.27;;
15110;SDS011;7656;51.954;7.998;2023-05-10T00:19:01;5.20;;;4.70;;
15110;SDS011;7656;51.954;7.998;2023-05-10T00:23:22;4.97;;;4.03;;
15110;SDS011;7656;51.954;7.998;2023-05-10T00:27:43;5.27;;;3.77;;
15110;SDS011;7656;51.954;7.998;2023-05-10T00:32:05;3.50;;;3.20;;
15110;SDS011;7656;51.954;7.998;2023-05-10T00:36:27;3.13;;;2.90;;
15110;SDS011;7656;51.954;7.998;2023-05-10T00:40:48;3.43;;;3.10;;
15110;SDS011;7656;51.954;7.998;2023-05-10T00:45:17;3.13;;;2.87;;
15110;SDS011;7656;51.954;7.998;2023-05-10T00:49:39;3.17;;;2.90;;
15110;SDS011;7656;51.954;7.998;2023-05-10T00:54:02;4.17;;;2.90;;
15110;SDS011;7656;51.954;7.998;2023-05-10T00:58:23;3.40;;;3.10;;
15110;SDS011;7656;51.954;7.998;2023-05-10T01:02:48;3.17;;;2.83;;
15110;SDS011;7656;51.954;7.998;2023-05-10T01:07:10;3.90;;;3.33;;
15110;SDS011;7656;51.954;7.998;2023-05-10T01:11:31;3.27;;;2.90;;
15110;SDS011;7656;51.954;7.998;2023-05-10T01:15:56;3.20;;;2.90;;
15110;SDS011;7656;51.954;7.998;2023-05-10T01:20:18;3.50;;;2.93;;
15110;SDS011;7656;51.954;7.998;2023-05-10T01:29:33;3.57;;;2.97;;
15110;SDS011;7656;51.954;7.998;2023-05-10T01:34:23;4.23;;;3.30;;
15110;SDS011;7656;51.954;7.998;2023-05-10T01:38:51;4.40;;;2.47;;
15110;SDS011;7656;51.954;7.998;2023-05-10T01:43:21;3.67;;;3.37;;
15110;SDS011;7656;51.954;7.998;2023-05-10T01:47:58;5.10;;;3.40;;
15110;SDS011;7656;51.954;7.998;2023-05-10T01:52:30;3.57;;;3.27;;
15110;SDS011;7656;51.954;7.998;2023-05-10T01:57:01;3.97;;;3.00;;
15110;SDS011;7656;51.954;7.998;2023-05-10T02:01:26;3.60;;;3.10;;
15110;SDS011;7656;51.954;7.998;2023-05-10T02:05:48;3.70;;;3.30;;
15110;SDS011;7656;51.954;7.998;2023-05-10T02:10:10;3.23;;;2.93;;
15110;SDS011;7656;51.954;7.998;2023-05-10T02:14:34;3.67;;;3.37;;
15110;SDS011;7656;51.954;7.998;2023-05-10T02:18:57;3.17;;;2.87;;
15110;SDS011;7656;51.954;7.998;2023-05-10T02:23:22;3.30;;;3.00;;
15110;SDS011;7656;51.954;7.998;2023-05-10T02:27:45;2.90;;;2.70;;
15110;SDS011;7656;51.954;7.998;2023-05-10T02:32:08;2.73;;;2.53;;
15110;SDS011;7656;51.954;7.998;2023-05-10T02:36:31;2.90;;;2.60;;
15110;SDS011;7656;51.954;7.998;2023-05-10T02:40:53;2.37;;;2.17;;
15110;SDS011;7656;51.954;7.998;2023-05-10T02:45:20;2.33;;;2.10;;
15110;SDS011;7656;51.954;7.998;2023-05-10T02:49:45;1.63;;;1.53;;
15110;SDS011;7656;51.954;7.998;2023-05-10T02:54:07;1.50;;;1.40;;
15110;SDS011;7656;51.954;7.998;2023-05-10T02:58:33;2.30;;;1.10;;
15110;SDS011;7656;51.954;7.998;2023-05-10T03:02:54;2.57;;;1.07;;
15110;SDS011;7656;51.954;7.998;2023-05-10T03:07:15;0.87;;;0.87;;
15110;SDS011;7656;51.954;7.998;2023-05-10T03:16:21;1.33;;;1.20;;
15110;SDS011;7656;51.954;7.998;2023-05-10T03:21:03;1.30;;;1.20;;
15110;SDS011;7656;51.954;7.998;2023-05-10T03:25:29;1.70;;;1.60;;
15110;SDS011;7656;51.954;7.998;2023-05-10T03:29:52;1.90;;;1.80;;
15110;SDS011;7656;51.954;7.998;2023-05-10T03:34:15;1.87;;;1.60;;
15110;SDS011;7656;51.954;7.998;2023-05-10T03:38:38;1.80;;;1.70;;
15110;SDS011;7656;51.954;7.998;2023-05-10T03:42:59;2.13;;;1.90;;
15110;SDS011;7656;51.954;7.998;2023-05-10T03:47:21;1.93;;;1.83;;
15110;SDS011;7656;51.954;7.998;2023-05-10T03:51:42;2.10;;;1.80;;
15110;SDS011;7656;51.954;7.998;2023-05-10T03:56:03;2.47;;;2.27;;
15110;SDS011;7656;51.954;7.998;2023-05-10T04:00:24;2.17;;;1.97;;
15110;SDS011;7656;51.954;7.998;2023-05-10T04:04:48;2.80;;;2.50;;
15110;SDS011;7656;51.954;7.998;2023-05-10T04:09:10;2.07;;;1.93;;
15110;SDS011;7656;51.954;7.998;2023-05-10T04:13:33;3.30;;;2.17;;
15110;SDS011;7656;51.954;7.998;2023-05-10T04:17:55;2.47;;;2.27;;
15110;SDS011;7656;51.954;7.998;2023-05-10T04:22:16;2.77;;;2.20;;
15110;SDS011;7656;51.954;7.998;2023-05-10T04:26:37;1.80;;;1.70;;
15110;SDS011;7656;51.954;7.998;2023-05-10T04:35:28;3.07;;;2.20;;
15110;SDS011;7656;51.954;7.998;2023-05-10T04:39:49;3.00;;;2.17;;
15110;SDS011;7656;51.954;7.998;2023-05-10T04:44:10;2.40;;;2.20;;
15110;SDS011;7656;51.954;7.998;2023-05-10T04:48:31;2.57;;;2.37;;
15110;SDS011;7656;51.954;7.998;2023-05-10T04:52:52;2.43;;;2.23;;
15110;SDS011;7656;51.954;7.998;2023-05-10T04:57:13;2.33;;;2.13;;
15110;SDS011;7656;51.954;7.998;2023-05-10T05:01:34;4.57;;;2.93;;
15110;SDS011;7656;51.954;7.998;2023-05-10T05:05:55;6.33;;;4.33;;
15110;SDS011;7656;51.954;7.998;2023-05-10T05:10:16;4.83;;;3.90;;
15110;SDS011;7656;51.954;7.998;2023-05-10T05:14:37;5.10;;;3.67;;
15110;SDS011;7656;51.954;7.998;2023-05-10T05:18:59;3.77;;;2.63;;
15110;SDS011;7656;51.954;7.998;2023-05-10T05:23:21;4.03;;;2.97;;
15110;SDS011;7656;51.954;7.998;2023-05-10T05:27:44;2.30;;;2.10;;
15110;SDS011;7656;51.954;7.998;2023-05-10T05:32:06;3.17;;;2.23;;
15110;SDS011;7656;51.954;7.998;2023-05-10T05:36:28;3.73;;;2.43;;
15110;SDS011;7656;51.954;7.998;2023-05-10T05:40:49;3.83;;;2.37;;
15110;SDS011;7656;51.954;7.998;2023-05-10T05:45:10;2.63;;;2.43;;
15110;SDS011;7656;51.954;7.998;2023-05-10T05:49:33;3.30;;;3.00;;
15110;SDS011;7656;51.954;7.998;2023-05-10T05:53:54;3.83;;;2.37;;
15110;SDS011;7656;51.954;7.998;2023-05-10T05:58:15;3.17;;;2.87;;
15110;SDS011;7656;51.954;7.998;2023-05-10T06:02:36;3.13;;;2.80;;
15110;SDS011;7656;51.954;7.998;2023-05-10T06:06:57;4.17;;;3.07;;
15110;SDS011;7656;51.954;7.998;2023-05-10T06:11:18;4.10;;;2.90;;
15110;SDS011;7656;51.954;7.998;2023-05-10T06:15:41;6.53;;;3.63;;
15110;SDS011;7656;51.954;7.998;2023-05-10T06:20:02;5.07;;;3.97;;
15110;SDS011;7656;51.954;7.998;2023-05-10T06:24:23;5.60;;;4.20;;
15110;SDS011;7656;51.954;7.998;2023-05-10T06:28:44;8.47;;;5.07;;
15110;SDS011;7656;51.954;7.998;2023-05-10T06:33:05;5.13;;;4.10;;
15110;SDS011;7656;51.954;7.998;2023-05-10T06:37:26;6.10;;;4.40;;
15110;SDS011;7656;51.954;7.998;2023-05-10T06:41:47;8.93;;;5.87;;
15110;SDS011;7656;51.954;7.998;2023-05-10T06:46:08;7.93;;;5.13;;
15110;SDS011;7656;51.954;7.998;2023-05-10T06:50:29;10.13;;;6.63;;
15110;SDS011;7656;51.954;7.998;2023-05-10T06:54:50;8.63;;;5.60;;
15110;SDS011;7656;51.954;7.998;2023-05-10T06:59:11;9.57;;;6.80;;
15110;SDS011;7656;51.954;7.998;2023-05-10T07:03:33;10.57;;;7.10;;
15110;SDS011;7656;51.954;7.998;2023-05-10T07:07:55;12.70;;;7.80;;
15110;SDS011;7656;51.954;7.998;2023-05-10T07:12:15;12.60;;;7.63;;
15110;SDS011;7656;51.954;7.998;2023-05-10T07:16:37;11.80;;;8.23;;
15110;SDS011;7656;51.954;7.998;2023-05-10T07:20:58;13.53;;;8.90;;
15110;SDS011;7656;51.954;7.998;2023-05-10T07:25:19;18.33;;;11.47;;
15110;SDS011;7656;51.954;7.998;2023-05-10T07:29:40;12.53;;;7.33;;
15110;SDS011;7656;51.954;7.998;2023-05-10T07:34:01;12.70;;;7.80;;
15110;SDS011;7656;51.954;7.998;2023-05-10T07:38:22;10.93;;;7.00;;
15110;SDS011;7656;51.954;7.998;2023-05-10T07:42:43;10.20;;;7.17;;
15110;SDS011;7656;51.954;7.998;2023-05-10T07:47:04;11.53;;;7.87;;
15110;SDS011;7656;51.954;7.998;2023-05-10T07:51:25;11.87;;;7.93;;
15110;SDS011;7656;51.954;7.998;2023-05-10T07:55:51;13.33;;;8.67;;
15110;SDS011;7656;51.954;7.998;2023-05-10T08:00:19;14.13;;;8.90;;
15110;SDS011;7656;51.954;7.998;2023-05-10T08:04:40;17.27;;;10.40;;
15110;SDS011;7656;51.954;7.998;2023-05-10T08:09:01;17.57;;;10.27;;
15110;SDS011;7656;51.954;7.998;2023-05-10T08:13:22;18.50;;;10.90;;
15110;SDS011;7656;51.954;7.998;2023-05-10T08:17:43;20.87;;;11.70;;
15110;SDS011;7656;51.954;7.998;2023-05-10T08:22:04;19.23;;;12.03;;
15110;SDS011;7656;51.954;7.998;2023-05-10T08:26:26;16.65;;;11.93;;
15110;SDS011;7656;51.954;7.998;2023-05-10T08:30:49;13.55;;;9.85;;
15110;SDS011;7656;51.954;7.998;2023-05-10T08:35:11;13.43;;;10.20;;
15110;SDS011;7656;51.954;7.998;2023-05-10T08:39:35;13.63;;;9.90;;
15110;SDS011;7656;51.954;7.998;2023-05-10T08:43:56;12.63;;;9.55;;
15110;SDS011;7656;51.954;7.998;2023-05-10T08:48:17;14.02;;;9.52;;
15110;SDS011;7656;51.954;7.998;2023-05-10T08:52:39;17.02;;;11.25;;
15110;SDS011;7656;51.954;7.998;2023-05-10T08:57:01;12.75;;;9.20;;
15110;SDS011;7656;51.954;7.998;2023-05-10T09:01:23;14.00;;;9.60;;
15110;SDS011;7656;51.954;7.998;2023-05-10T09:05:46;15.70;;;9.75;;
15110;SDS011;7656;51.954;7.998;2023-05-10T09:10:09;17.45;;;9.77;;
15110;SDS011;7656;51.954;7.998;2023-05-10T09:14:32;12.52;;;8.45;;
15110;SDS011;7656;51.954;7.998;2023-05-10T09:18:55;12.45;;;8.10;;
15110;SDS011;7656;51.954;7.998;2023-05-10T09:23:16;12.80;;;8.13;;
15110;SDS011;7656;51.954;7.998;2023-05-10T09:27:38;9.55;;;7.13;;
15110;SDS011;7656;51.954;7.998;2023-05-10T09:32:02;11.65;;;8.32;;
15110;SDS011;7656;51.954;7.998;2023-05-10T09:36:23;10.70;;;8.02;;
15110;SDS011;7656;51.954;7.998;2023-05-10T09:40:50;19.52;;;12.93;;
15110;SDS011;7656;51.954;7.998;2023-05-10T09:45:16;13.73;;;8.80;;
15110;SDS011;7656;51.954;7.998;2023-05-10T09:49:37;11.27;;;8.50;;
15110;SDS011;7656;51.954;7.998;2023-05-10T09:54:17;12.85;;;8.60;;
15110;SDS011;7656;51.954;7.998;2023-05-10T09:58:38;12.20;;;8.23;;
15110;SDS011;7656;51.954;7.998;2023-05-10T10:03:00;12.63;;;7.78;;
15110;SDS011;7656;51.954;7.998;2023-05-10T10:07:22;11.93;;;8.20;;
15110;SDS011;7656;51.954;7.998;2023-05-10T10:11:47;13.13;;;8.40;;
15110;SDS011;7656;51.954;7.998;2023-05-10T10:16:08;11.35;;;8.25;;
15110;SDS011;7656;51.954;7.998;2023-05-10T10:20:30;12.38;;;8.10;;
15110;SDS011;7656;51.954;7.998;2023-05-10T10:24:51;13.48;;;8.45;;
15110;SDS011;7656;51.954;7.998;2023-05-10T10:29:19;12.43;;;7.43;;
15110;SDS011;7656;51.954;7.998;2023-05-10T10:33:51;7.63;;;6.32;;
15110;SDS011;7656;51.954;7.998;2023-05-10T10:38:41;13.48;;;7.32;;
15110;SDS011;7656;51.954;7.998;2023-05-10T10:47:47;14.43;;;8.43;;
15110;SDS011;7656;51.954;7.998;2023-05-10T10:57:14;11.85;;;7.57;;
15110;SDS011;7656;51.954;7.998;2023-05-10T11:01:35;12.18;;;7.97;;
15110;SDS011;7656;51.954;7.998;2023-05-10T11:05:59;11.10;;;7.97;;
15110;SDS011;7656;51.954;7.998;2023-05-10T11:10:22;12.07;;;8.43;;
15110;SDS011;7656;51.954;7.998;2023-05-10T11:14:49;13.52;;;8.57;;
15110;SDS011;7656;51.954;7.998;2023-05-10T11:19:12;11.82;;;7.85;;
15110;SDS011;7656;51.954;7.998;2023-05-10T11:28:05;17.35;;;9.50;;
15110;SDS011;7656;51.954;7.998;2023-05-10T11:32:26;12.45;;;8.38;;
15110;SDS011;7656;51.954;7.998;2023-05-10T11:36:50;13.85;;;8.82;;
15110;SDS011;7656;51.954;7.998;2023-05-10T11:41:15;14.10;;;8.48;;
15110;SDS011;7656;51.954;7.998;2023-05-10T11:45:39;10.77;;;7.97;;
15110;SDS011;7656;51.954;7.998;2023-05-10T11:50:01;13.25;;;8.90;;
15110;SDS011;7656;51.954;7.998;2023-05-10T11:54:23;12.90;;;8.68;;
15110;SDS011;7656;51.954;7.998;2023-05-10T11:58:44;8.10;;;6.65;;
15110;SDS011;7656;51.954;7.998;2023-05-10T12:03:07;11.50;;;7.70;;
15110;SDS011;7656;51.954;7.998;2023-05-10T12:07:28;12.38;;;8.48;;
15110;SDS011;7656;51.954;7.998;2023-05-10T12:11:49;11.90;;;7.07;;
15110;SDS011;7656;51.954;7.998;2023-05-10T12:16:21;10.52;;;8.50;;
15110;SDS011;7656;51.954;7.998;2023-05-10T12:20:44;12.27;;;7.68;;
15110;SDS011;7656;51.954;7.998;2023-05-10T12:25:06;9.98;;;7.65;;
15110;SDS011;7656;51.954;7.998;2023-05-10T12:29:29;16.45;;;8.27;;
15110;SDS011;7656;51.954;7.998;2023-05-10T12:33:51;10.32;;;6.97;;
15110;SDS011;7656;51.954;7.998;2023-05-10T12:42:58;12.15;;;7.72;;
15110;SDS011;7656;51.954;7.998;2023-05-10T12:47:19;10.43;;;7.30;;
15110;SDS011;7656;51.954;7.998;2023-05-10T12:51:40;11.45;;;6.28;;
15110;SDS011;7656;51.954;7.998;2023-05-10T12:56:01;9.63;;;7.20;;
15110;SDS011;7656;51.954;7.998;2023-05-10T13:00:23;10.50;;;7.68;;
15110;SDS011;7656;51.954;7.998;2023-05-10T13:04:44;11.23;;;7.75;;
15110;SDS011;7656;51.954;7.998;2023-05-10T13:09:06;10.85;;;7.93;;
15110;SDS011;7656;51.954;7.998;2023-05-10T13:13:28;11.80;;;8.20;;
15110;SDS011;7656;51.954;7.998;2023-05-10T13:17:49;11.10;;;8.07;;
15110;SDS011;7656;51.954;7.998;2023-05-10T13:22:10;9.57;;;7.35;;
15110;SDS011;7656;51.954;7.998;2023-05-10T13:26:31;11.45;;;8.77;;
15110;SDS011;7656;51.954;7.998;2023-05-10T13:30:53;11.93;;;8.88;;
15110;SDS011;7656;51.954;7.998;2023-05-10T13:35:14;13.38;;;8.82;;
15110;SDS011;7656;51.954;7.998;2023-05-10T13:39:35;13.63;;;8.13;;
15110;SDS011;7656;51.954;7.998;2023-05-10T13:43:58;13.00;;;9.40;;
15110;SDS011;7656;51.954;7.998;2023-05-10T13:48:19;13.00;;;8.95;;
15110;SDS011;7656;51.954;7.998;2023-05-10T13:52:40;11.38;;;8.38;;
15110;SDS011;7656;51.954;7.998;2023-05-10T13:57:01;12.18;;;7.68;;
15110;SDS011;7656;51.954;7.998;2023-05-10T14:01:22;9.82;;;7.30;;
15110;SDS011;7656;51.954;7.998;2023-05-10T14:05:43;12.52;;;7.57;;
15110;SDS011;7656;51.954;7.998;2023-05-10T14:10:05;11.50;;;7.53;;
15110;SDS011;7656;51.954;7.998;2023-05-10T14:14:27;11.00;;;7.47;;
15110;SDS011;7656;51.954;7.998;2023-05-10T14:18:49;8.57;;;7.10;;
15110;SDS011;7656;51.954;7.998;2023-05-10T14:23:10;8.95;;;6.57;;
15110;SDS011;7656;51.954;7.998;2023-05-10T14:27:32;7.68;;;5.88;;
15110;SDS011;7656;51.954;7.998;2023-05-10T14:31:53;14.90;;;9.45;;
15110;SDS011;7656;51.954;7.998;2023-05-10T14:36:14;9.88;;;6.82;;
15110;SDS011;7656;51.954;7.998;2023-05-10T14:40:36;10.18;;;7.30;;
15110;SDS011;7656;51.954;7.998;2023-05-10T14:44:57;10.57;;;7.45;;
15110;SDS011;7656;51.954;7.998;2023-05-10T14:49:18;8.45;;;6.38;;
15110;SDS011;7656;51.954;7.998;2023-05-10T14:53:39;12.20;;;7.13;;
15110;SDS011;7656;51.954;7.998;2023-05-10T14:58:01;8.63;;;6.55;;
15110;SDS011;7656;51.954;7.998;2023-05-10T15:02:24;8.20;;;5.67;;
15110;SDS011;7656;51.954;7.998;2023-05-10T15:06:45;8.23;;;6.13;;
15110;SDS011;7656;51.954;7.998;2023-05-10T15:11:06;10.77;;;7.23;;
15110;SDS011;7656;51.954;7.998;2023-05-10T15:15:27;9.32;;;6.57;;
15110;SDS011;7656;51.954;7.998;2023-05-10T15:19:48;9.25;;;6.47;;
15110;SDS011;7656;51.954;7.998;2023-05-10T15:24:09;11.55;;;7.50;;
15110;SDS011;7656;51.954;7.998;2023-05-10T15:28:31;10.00;;;7.20;;
15110;SDS011;7656;51.954;7.998;2023-05-10T15:32:52;11.13;;;6.40;;
15110;SDS011;7656;51.954;7.998;2023-05-10T15:37:13;10.10;;;5.82;;
15110;SDS011;7656;51.954;7.998;2023-05-10T15:41:35;9.68;;;6.25;;
15110;SDS011;7656;51.954;7.998;2023-05-10T15:45:56;9.35;;;6.85;;
15110;SDS011;7656;51.954;7.998;2023-05-10T15:50:17;7.00;;;5.78;;
15110;SDS011;7656;51.954;7.998;2023-05-10T15:54:38;10.35;;;7.13;;
15110;SDS011;7656;51.954;7.998;2023-05-10T15:58:59;10.32;;;6.50;;
15110;SDS011;7656;51.954;7.998;2023-05-10T16:03:20;9.50;;;7.10;;
15110;SDS011;7656;51.954;7.998;2023-05-10T16:07:41;12.93;;;6.68;;
15110;SDS011;7656;51.954;7.998;2023-05-10T16:12:03;8.85;;;6.40;;
15110;SDS011;7656;51.954;7.998;2023-05-10T16:16:24;10.50;;;6.22;;
15110;SDS011;7656;51.954;7.998;2023-05-10T16:20:45;9.20;;;6.78;;
15110;SDS011;7656;51.954;7.998;2023-05-10T16:25:07;9.95;;;6.60;;
15110;SDS011;7656;51.954;7.998;2023-05-10T16:29:28;9.48;;;6.20;;
15110;SDS011;7656;51.954;7.998;2023-05-10T16:33:54;9.18;;;6.28;;
15110;SDS011;7656;51.954;7.998;2023-05-10T16:38:15;11.50;;;6.68;;
15110;SDS011;7656;51.954;7.998;2023-05-10T16:42:36;10.95;;;7.10;;
15110;SDS011;7656;51.954;7.998;2023-05-10T16:46:57;12.02;;;6.85;;
15110;SDS011;7656;51.954;7.998;2023-05-10T16:51:18;9.23;;;6.78;;
15110;SDS011;7656;51.954;7.998;2023-05-10T16:55:39;9.63;;;7.30;;
15110;SDS011;7656;51.954;7.998;2023-05-10T17:00:01;9.00;;;6.07;;
15110;SDS011;7656;51.954;7.998;2023-05-10T17:04:24;8.68;;;6.57;;
15110;SDS011;7656;51.954;7.998;2023-05-10T17:08:45;9.52;;;6.78;;
15110;SDS011;7656;51.954;7.998;2023-05-10T17:13:06;10.27;;;6.90;;
15110;SDS011;7656;51.954;7.998;2023-05-10T17:17:28;13.07;;;7.10;;
15110;SDS011;7656;51.954;7.998;2023-05-10T17:21:49;12.10;;;5.87;;
15110;SDS011;7656;51.954;7.998;2023-05-10T17:26:10;9.93;;;5.60;;
15110;SDS011;7656;51.954;7.998;2023-05-10T17:30:31;9.60;;;5.78;;
15110;SDS011;7656;51.954;7.998;2023-05-10T17:34:52;7.85;;;5.20;;
15110;SDS011;7656;51.954;7.998;2023-05-10T17:39:13;8.40;;;5.60;;
15110;SDS011;7656;51.954;7.998;2023-05-10T17:43:35;10.30;;;5.90;;
15110;SDS011;7656;51.954;7.998;2023-05-10T17:47:56;9.30;;;5.67;;
15110;SDS011;7656;51.954;7.998;2023-05-10T17:52:17;8.70;;;4.90;;
15110;SDS011;7656;51.954;7.998;2023-05-10T17:56:38;7.87;;;5.27;;
15110;SDS011;7656;51.954;7.998;2023-05-10T18:01:00;7.40;;;5.63;;
15110;SDS011;7656;51.954;7.998;2023-05-10T18:05:22;6.93;;;4.97;;
15110;SDS011;7656;51.954;7.998;2023-05-10T18:09:43;8.03;;;4.67;;
15110;SDS011;7656;51.954;7.998;2023-05-10T18:14:04;8.00;;;5.40;;
15110;SDS011;7656;51.954;7.998;2023-05-10T18:18:25;8.47;;;5.20;;
15110;SDS011;7656;51.954;7.998;2023-05-10T18:22:46;7.93;;;5.63;;
15110;SDS011;7656;51.954;7.998;2023-05-10T18:27:08;7.60;;;4.93;;
15110;SDS011;7656;51.954;7.998;2023-05-10T18:31:29;7.77;;;5.47;;
15110;SDS011;7656;51.954;7.998;2023-05-10T18:35:50;7.03;;;4.60;;
15110;SDS011;7656;51.954;7.998;2023-05-10T18:40:11;9.63;;;5.17;;
15110;SDS011;7656;51.954;7.998;2023-05-10T18:44:34;8.33;;;4.90;;
15110;SDS011;7656;51.954;7.998;2023-05-10T18:48:55;8.67;;;4.87;;
15110;SDS011;7656;51.954;7.998;2023-05-10T18:53:16;10.17;;;5.83;;
15110;SDS011;7656;51.954;7.998;2023-05-10T18:57:37;6.93;;;4.73;;
15110;SDS011;7656;51.954;7.998;2023-05-10T19:02:01;13.47;;;6.40;;
15110;SDS011;7656;51.954;7.998;2023-05-10T19:06:23;11.90;;;6.43;;
15110;SDS011;7656;51.954;7.998;2023-05-10T19:10:44;11.30;;;7.17;;
15110;SDS011;7656;51.954;7.998;2023-05-10T19:15:05;12.80;;;7.73;;
15110;SDS011;7656;51.954;7.998;2023-05-10T19:19:27;11.27;;;7.80;;
15110;SDS011;7656;51.954;7.998;2023-05-10T19:23:48;13.70;;;9.03;;
15110;SDS011;7656;51.954;7.998;2023-05-10T19:28:10;13.93;;;9.40;;
15110;SDS011;7656;51.954;7.998;2023-05-10T19:32:31;14.47;;;7.97;;
15110;SDS011;7656;51.954;7.998;2023-05-10T19:36:52;12.53;;;8.30;;
15110;SDS011;7656;51.954;7.998;2023-05-10T19:41:13;13.83;;;8.33;;
15110;SDS011;7656;51.954;7.998;2023-05-10T19:45:35;10.97;;;7.47;;
15110;SDS011;7656;51.954;7.998;2023-05-10T19:49:56;14.20;;;8.70;;
15110;SDS011;7656;51.954;7.998;2023-05-10T19:54:17;15.93;;;9.00;;
15110;SDS011;7656;51.954;7.998;2023-05-10T19:58:40;11.67;;;8.27;;
15110;SDS011;7656;51.954;7.998;2023-05-10T20:03:01;11.70;;;7.97;;
15110;SDS011;7656;51.954;7.998;2023-05-10T20:07:24;18.07;;;9.57;;
15110;SDS011;7656;51.954;7.998;2023-05-10T20:11:46;14.33;;;9.87;;
15110;SDS011;7656;51.954;7.998;2023-05-10T20:16:08;13.53;;;8.30;;
15110;SDS011;7656;51.954;7.998;2023-05-10T20:20:29;12.07;;;9.23;;
15110;SDS011;7656;51.954;7.998;2023-05-10T20:24:51;12.03;;;8.57;;
15110;SDS011;7656;51.954;7.998;2023-05-10T20:29:12;11.67;;;9.23;;
15110;SDS011;7656;51.954;7.998;2023-05-10T20:33:33;14.60;;;9.47;;
15110;SDS011;7656;51.954;7.998;2023-05-10T20:37:54;14.30;;;8.77;;
15110;SDS011;7656;51.954;7.998;2023-05-10T20:42:15;11.47;;;7.73;;
15110;SDS011;7656;51.954;7.998;2023-05-10T20:46:36;12.67;;;9.13;;
15110;SDS011;7656;51.954;7.998;2023-05-10T20:50:58;12.97;;;7.97;;
15110;SDS011;7656;51.954;7.998;2023-05-10T20:55:20;12.90;;;8.17;;
15110;SDS011;7656;51.954;7.998;2023-05-10T20:59:41;11.83;;;7.53;;
15110;SDS011;7656;51.954;7.998;2023-05-10T21:04:02;13.33;;;9.13;;
15110;SDS011;7656;51.954;7.998;2023-05-10T21:08:23;12.73;;;8.23;;
15110;SDS011;7656;51.954;7.998;2023-05-10T21:12:45;11.97;;;7.83;;
15110;SDS011;7656;51.954;7.998;2023-05-10T21:17:06;11.77;;;8.17;;
15110;SDS011;7656;51.954;7.998;2023-05-10T21:21:27;11.40;;;7.97;;
15110;SDS011;7656;51.954;7.998;2023-05-10T21:25:48;12.70;;;8.03;;
15110;SDS011;7656;51.954;7.998;2023-05-10T21:30:09;10.73;;;7.73;;
15110;SDS011;7656;51.954;7.998;2023-05-10T21:34:31;10.97;;;7.30;;
15110;SDS011;7656;51.954;7.998;2023-05-10T21:38:53;6.20;;;4.43;;
15110;SDS011;7656;51.954;7.998;2023-05-10T21:43:14;5.37;;;3.63;;
15110;SDS011;7656;51.954;7.998;2023-05-10T21:47:35;6.33;;;2.57;;
15110;SDS011;7656;51.954;7.998;2023-05-10T21:51:56;3.77;;;2.10;;
15110;SDS011;7656;51.954;7.998;2023-05-10T21:56:17;2.17;;;1.97;;
15110;SDS011;7656;51.954;7.998;2023-05-10T22:00:38;1.77;;;1.67;;
15110;SDS011;7656;51.954;7.998;2023-05-10T22:05:00;2.03;;;1.93;;
15110;SDS011;7656;51.954;7.998;2023-05-10T22:09:23;1.70;;;1.60;;
15110;SDS011;7656;51.954;7.998;2023-05-10T22:13:44;1.50;;;1.40;;
15110;SDS011;7656;51.954;7.998;2023-05-10T22:18:05;2.30;;;1.77;;
15110;SDS011;7656;51.954;7.998;2023-05-10T22:22:27;2.80;;;2.10;;
15110;SDS011;7656;51.954;7.998;2023-05-10T22:26:48;2.60;;;1.70;;
15110;SDS011;7656;51.954;7.998;2023-05-10T22:31:09;2.90;;;1.83;;
15110;SDS011;7656;51.954;7.998;2023-05-10T22:35:31;4.80;;;1.50;;
15110;SDS011;7656;51.954;7.998;2023-05-10T22:39:52;1.43;;;1.33;;
15110;SDS011;7656;51.954;7.998;2023-05-10T22:44:13;2.03;;;1.37;;
15110;SDS011;7656;51.954;7.998;2023-05-10T22:48:34;1.20;;;1.00;;
15110;SDS011;7656;51.954;7.998;2023-05-10T22:52:55;1.63;;;1.30;;
15110;SDS011;7656;51.954;7.998;2023-05-10T22:57:16;0.97;;;0.90;;
15110;SDS011;7656;51.954;7.998;2023-05-10T23:01:38;2.23;;;1.40;;
15110;SDS011;7656;51.954;7.998;2023-05-10T23:05:59;1.13;;;1.13;;
15110;SDS011;7656;51.954;7.998;2023-05-10T23:10:20;1.33;;;1.23;;
15110;SDS011;7656;51.954;7.998;2023-05-10T23:14:41;2.50;;;1.20;;
15110;SDS011;7656;51.954;7.998;2023-05-10T23:19:05;1.63;;;1.23;;
15110;SDS011;7656;51.954;7.998;2023-05-10T23:23:26;2.40;;;1.00;;
15110;SDS011;7656;51.954;7.998;2023-05-10T23:27:47;1.13;;;0.90;;
15110;SDS011;7656;51.954;7.998;2023-05-10T23:32:09;0.80;;;0.80;;
15110;SDS011;7656;51.954;7.998;2023-05-10T23:36:30;1.10;;;1.10;;
15110;SDS011;7656;51.954;7.998;2023-05-10T23:40:52;2.67;;;1.10;;
15110;SDS011;7656;51.954;7.998;2023-05-10T23:45:14;1.40;;;1.30;;
15110;SDS011;7656;51.954;7.998;2023-05-10T23:49:35;1.30;;;1.20;;
15110;SDS011;7656;51.954;7.998;2023-05-10T23:53:57;1.40;;;1.30;;
15110;SDS011;7656;51.954;7.998;2023-05-10T23:58:18;1.40;;;1.30;;
